OHFUK LIML-LSGS
Flight info
| Callsign | OHFUK |
|---|---|
| Flight time | 0h 55m |
| Altitude | 18000 |
| Route | OMETO DCT TERSI L615 BANKO L50 VALOR |
| Aircraft | PC12/L-SDFGRWY/S |
Departure
| Time | 2026-05-08 13:10 |
|---|---|
| Airport | Milano Linate Airport (LIML) |
Arrival
| Time | 2026-05-08 14:06 |
|---|---|
| Airport | Sion Airport (LSGS) |
| Time | Latitude | Longitude | Altitude | Speed | Heading |
|---|---|---|---|---|---|
| 2026-05-08 12:38 | 45.45359 | 9.26236 | 356 ft | 0 kts | 250° |
| 2026-05-08 12:56 | 45.45362 | 9.26219 | 356 ft | 6 kts | 306° |
| 2026-05-08 12:57 | 45.45398 | 9.26257 | 356 ft | 10 kts | 67° |
| 2026-05-08 12:57 | 45.45460 | 9.26257 | 360 ft | 12 kts | 335° |
| 2026-05-08 12:57 | 45.45541 | 9.26203 | 358 ft | 14 kts | 332° |
| 2026-05-08 12:57 | 45.45632 | 9.26160 | 356 ft | 14 kts | 358° |
| 2026-05-08 12:58 | 45.45728 | 9.26148 | 360 ft | 14 kts | 354° |
| 2026-05-08 12:58 | 45.45822 | 9.26147 | 356 ft | 13 kts | 12° |
| 2026-05-08 12:58 | 45.45904 | 9.26200 | 357 ft | 13 kts | 36° |
| 2026-05-08 12:58 | 45.45969 | 9.26276 | 356 ft | 12 kts | 40° |
| 2026-05-08 12:59 | 45.46024 | 9.26363 | 356 ft | 12 kts | 57° |
| 2026-05-08 12:59 | 45.46059 | 9.26470 | 358 ft | 13 kts | 73° |
| 2026-05-08 12:59 | 45.46067 | 9.26605 | 356 ft | 15 kts | 90° |
| 2026-05-08 12:59 | 45.46065 | 9.26751 | 356 ft | 15 kts | 92° |
| 2026-05-08 13:00 | 45.46064 | 9.26904 | 356 ft | 16 kts | 93° |
| 2026-05-08 13:00 | 45.46044 | 9.27067 | 356 ft | 17 kts | 105° |
| 2026-05-08 13:00 | 45.46019 | 9.27232 | 356 ft | 17 kts | 94° |
| 2026-05-08 13:00 | 45.46017 | 9.27406 | 356 ft | 18 kts | 92° |
| 2026-05-08 13:01 | 45.46013 | 9.27581 | 356 ft | 18 kts | 99° |
| 2026-05-08 13:01 | 45.45957 | 9.27732 | 362 ft | 17 kts | 129° |
| 2026-05-08 13:01 | 45.45906 | 9.27845 | 359 ft | 11 kts | 83° |
| 2026-05-08 13:01 | 45.45907 | 9.27952 | 356 ft | 10 kts | 94° |
| 2026-05-08 13:02 | 45.45851 | 9.27984 | 356 ft | 10 kts | 181° |
| 2026-05-08 13:02 | 45.45769 | 9.27982 | 363 ft | 13 kts | 181° |
| 2026-05-08 13:02 | 45.45668 | 9.27981 | 356 ft | 16 kts | 180° |
| 2026-05-08 13:02 | 45.45558 | 9.27975 | 356 ft | 16 kts | 184° |
| 2026-05-08 13:03 | 45.45450 | 9.27977 | 356 ft | 15 kts | 181° |
| 2026-05-08 13:03 | 45.45349 | 9.27953 | 363 ft | 15 kts | 205° |
| 2026-05-08 13:03 | 45.45257 | 9.27886 | 356 ft | 15 kts | 201° |
| 2026-05-08 13:03 | 45.45153 | 9.27872 | 356 ft | 15 kts | 174° |
| 2026-05-08 13:04 | 45.45041 | 9.27884 | 360 ft | 17 kts | 175° |
| 2026-05-08 13:04 | 45.44921 | 9.27911 | 358 ft | 18 kts | 164° |
| 2026-05-08 13:04 | 45.44804 | 9.27944 | 356 ft | 17 kts | 175° |
| 2026-05-08 13:04 | 45.44686 | 9.27957 | 356 ft | 17 kts | 175° |
| 2026-05-08 13:05 | 45.44562 | 9.27970 | 359 ft | 19 kts | 175° |
| 2026-05-08 13:05 | 45.44427 | 9.27984 | 357 ft | 20 kts | 175° |
| 2026-05-08 13:05 | 45.44292 | 9.28000 | 357 ft | 19 kts | 173° |
| 2026-05-08 13:05 | 45.44166 | 9.28012 | 357 ft | 18 kts | 175° |
| 2026-05-08 13:06 | 45.44043 | 9.28025 | 357 ft | 18 kts | 176° |
| 2026-05-08 13:06 | 45.43919 | 9.28039 | 357 ft | 18 kts | 175° |
| 2026-05-08 13:06 | 45.43788 | 9.28053 | 359 ft | 19 kts | 175° |
| 2026-05-08 13:06 | 45.43661 | 9.28066 | 361 ft | 18 kts | 176° |
| 2026-05-08 13:07 | 45.43536 | 9.28080 | 357 ft | 18 kts | 175° |
| 2026-05-08 13:07 | 45.43449 | 9.28034 | 359 ft | 12 kts | 251° |
| 2026-05-08 13:07 | 45.43443 | 9.27955 | 357 ft | 0 kts | 265° |
| 2026-05-08 13:08 | 45.43441 | 9.27919 | 357 ft | 8 kts | 266° |
| 2026-05-08 13:09 | 45.43440 | 9.27832 | 359 ft | 6 kts | 291° |
| 2026-05-08 13:09 | 45.43475 | 9.27818 | 359 ft | 0 kts | 356° |
| 2026-05-08 13:09 | 45.43651 | 9.27798 | 358 ft | 54 kts | 356° |
| 2026-05-08 13:10 | 45.44212 | 9.27740 | 393 ft | 99 kts | 355° |
| 2026-05-08 13:10 | 45.44907 | 9.27590 | 801 ft | 102 kts | 354° |
| 2026-05-08 13:10 | 45.45637 | 9.27422 | 1234 ft | 111 kts | 356° |
| 2026-05-08 13:10 | 45.46397 | 9.27258 | 1792 ft | 111 kts | 349° |
| 2026-05-08 13:11 | 45.47155 | 9.26929 | 2225 ft | 123 kts | 344° |
| 2026-05-08 13:11 | 45.47751 | 9.26661 | 2418 ft | 146 kts | 344° |
| 2026-05-08 13:11 | 45.48762 | 9.26192 | 3006 ft | 155 kts | 344° |
| 2026-05-08 13:11 | 45.49800 | 9.25701 | 3639 ft | 162 kts | 343° |
| 2026-05-08 13:12 | 45.50895 | 9.25186 | 4238 ft | 169 kts | 343° |
| 2026-05-08 13:12 | 45.52397 | 9.24412 | 5139 ft | 170 kts | 342° |
| 2026-05-08 13:12 | 45.53149 | 9.24027 | 5644 ft | 170 kts | 343° |
| 2026-05-08 13:12 | 45.54273 | 9.23504 | 6312 ft | 172 kts | 343° |
| 2026-05-08 13:13 | 45.55416 | 9.22967 | 6993 ft | 173 kts | 342° |
| 2026-05-08 13:13 | 45.56560 | 9.22408 | 7666 ft | 176 kts | 342° |
| 2026-05-08 13:13 | 45.57724 | 9.21837 | 8357 ft | 177 kts | 342° |
| 2026-05-08 13:13 | 45.58894 | 9.21260 | 9045 ft | 180 kts | 340° |
| 2026-05-08 13:14 | 45.60022 | 9.20478 | 9740 ft | 183 kts | 329° |
| 2026-05-08 13:14 | 45.61129 | 9.19272 | 9860 ft | 209 kts | 315° |
| 2026-05-08 13:14 | 45.62072 | 9.17689 | 10349 ft | 210 kts | 303° |
| 2026-05-08 13:14 | 45.62757 | 9.15842 | 10834 ft | 211 kts | 290° |
| 2026-05-08 13:15 | 45.63142 | 9.13856 | 11316 ft | 210 kts | 279° |
| 2026-05-08 13:15 | 45.63392 | 9.11791 | 11818 ft | 211 kts | 279° |
| 2026-05-08 13:15 | 45.63656 | 9.09719 | 12325 ft | 212 kts | 279° |
| 2026-05-08 13:15 | 45.63915 | 9.07650 | 12841 ft | 211 kts | 279° |
| 2026-05-08 13:16 | 45.64170 | 9.05581 | 13376 ft | 212 kts | 279° |
| 2026-05-08 13:16 | 45.64427 | 9.03510 | 13905 ft | 213 kts | 279° |
| 2026-05-08 13:16 | 45.64650 | 9.01407 | 14386 ft | 212 kts | 274° |
| 2026-05-08 13:16 | 45.64839 | 8.99318 | 14865 ft | 212 kts | 278° |
| 2026-05-08 13:17 | 45.65065 | 8.97238 | 15357 ft | 212 kts | 278° |
| 2026-05-08 13:17 | 45.65273 | 8.95155 | 15857 ft | 211 kts | 277° |
| 2026-05-08 13:17 | 45.65470 | 8.93071 | 16323 ft | 213 kts | 277° |
| 2026-05-08 13:17 | 45.65672 | 8.90945 | 16711 ft | 218 kts | 277° |
| 2026-05-08 13:18 | 45.65879 | 8.88773 | 17102 ft | 223 kts | 277° |
| 2026-05-08 13:18 | 45.66088 | 8.86588 | 17494 ft | 226 kts | 277° |
| 2026-05-08 13:18 | 45.66302 | 8.84349 | 17897 ft | 228 kts | 277° |
| 2026-05-08 13:18 | 45.66519 | 8.82057 | 18070 ft | 240 kts | 277° |
| 2026-05-08 13:19 | 45.66751 | 8.79622 | 18074 ft | 252 kts | 277° |
| 2026-05-08 13:19 | 45.66988 | 8.77139 | 18074 ft | 252 kts | 277° |
| 2026-05-08 13:19 | 45.67223 | 8.74660 | 18074 ft | 251 kts | 277° |
| 2026-05-08 13:19 | 45.67455 | 8.72188 | 18074 ft | 250 kts | 277° |
| 2026-05-08 13:20 | 45.67686 | 8.69724 | 18077 ft | 250 kts | 277° |
| 2026-05-08 13:20 | 45.67916 | 8.67263 | 18077 ft | 249 kts | 277° |
| 2026-05-08 13:20 | 45.68146 | 8.64805 | 18081 ft | 251 kts | 277° |
| 2026-05-08 13:20 | 45.68378 | 8.62305 | 18082 ft | 256 kts | 277° |
| 2026-05-08 13:21 | 45.68612 | 8.59796 | 18077 ft | 258 kts | 277° |
| 2026-05-08 13:21 | 45.68849 | 8.57241 | 18075 ft | 259 kts | 277° |
| 2026-05-08 13:21 | 45.69085 | 8.54693 | 18075 ft | 259 kts | 277° |
| 2026-05-08 13:21 | 45.69321 | 8.52137 | 18075 ft | 259 kts | 277° |
| 2026-05-08 13:22 | 45.69556 | 8.49576 | 18077 ft | 260 kts | 277° |
| 2026-05-08 13:22 | 45.69792 | 8.47010 | 18076 ft | 261 kts | 277° |
| 2026-05-08 13:22 | 45.70028 | 8.44430 | 18073 ft | 261 kts | 277° |
| 2026-05-08 13:22 | 45.70263 | 8.41863 | 18070 ft | 260 kts | 277° |
| 2026-05-08 13:23 | 45.70497 | 8.39299 | 18068 ft | 259 kts | 277° |
| 2026-05-08 13:23 | 45.70732 | 8.36746 | 18068 ft | 259 kts | 277° |
| 2026-05-08 13:23 | 45.70964 | 8.34227 | 18068 ft | 259 kts | 277° |
| 2026-05-08 13:23 | 45.71198 | 8.31667 | 18071 ft | 259 kts | 277° |
| 2026-05-08 13:24 | 45.71432 | 8.29111 | 18074 ft | 259 kts | 277° |
| 2026-05-08 13:24 | 45.71664 | 8.26556 | 18074 ft | 259 kts | 277° |
| 2026-05-08 13:24 | 45.71896 | 8.24006 | 18074 ft | 258 kts | 276° |
| 2026-05-08 13:24 | 45.72127 | 8.21454 | 18072 ft | 257 kts | 277° |
| 2026-05-08 13:25 | 45.72354 | 8.18930 | 18113 ft | 255 kts | 276° |
| 2026-05-08 13:25 | 45.72577 | 8.16404 | 18086 ft | 256 kts | 277° |
| 2026-05-08 13:25 | 45.72809 | 8.13876 | 18087 ft | 256 kts | 277° |
| 2026-05-08 13:25 | 45.73038 | 8.11350 | 18087 ft | 255 kts | 276° |
| 2026-05-08 13:26 | 45.73262 | 8.08828 | 18081 ft | 256 kts | 276° |
| 2026-05-08 13:26 | 45.73487 | 8.06293 | 18084 ft | 256 kts | 276° |
| 2026-05-08 13:26 | 45.73709 | 8.03797 | 18084 ft | 256 kts | 277° |
| 2026-05-08 13:26 | 45.73934 | 8.01266 | 18089 ft | 257 kts | 276° |
| 2026-05-08 13:27 | 45.74158 | 7.98733 | 18084 ft | 257 kts | 276° |
| 2026-05-08 13:27 | 45.74382 | 7.96192 | 18083 ft | 256 kts | 276° |
| 2026-05-08 13:27 | 45.74606 | 7.93658 | 18084 ft | 255 kts | 276° |
| 2026-05-08 13:27 | 45.74827 | 7.91136 | 18080 ft | 255 kts | 276° |
| 2026-05-08 13:28 | 45.75048 | 7.88611 | 18087 ft | 256 kts | 276° |
| 2026-05-08 13:28 | 45.75266 | 7.86111 | 18088 ft | 256 kts | 276° |
| 2026-05-08 13:28 | 45.75487 | 7.83571 | 18081 ft | 258 kts | 276° |
| 2026-05-08 13:28 | 45.75709 | 7.81021 | 18075 ft | 257 kts | 276° |
| 2026-05-08 13:29 | 45.75930 | 7.78485 | 18086 ft | 257 kts | 276° |
| 2026-05-08 13:29 | 45.76150 | 7.75945 | 18085 ft | 258 kts | 276° |
| 2026-05-08 13:29 | 45.76369 | 7.73402 | 18087 ft | 258 kts | 276° |
| 2026-05-08 13:29 | 45.76589 | 7.70843 | 18084 ft | 258 kts | 276° |
| 2026-05-08 13:30 | 45.76807 | 7.68293 | 18082 ft | 257 kts | 276° |
| 2026-05-08 13:30 | 45.77023 | 7.65747 | 18080 ft | 258 kts | 276° |
| 2026-05-08 13:30 | 45.77240 | 7.63200 | 18080 ft | 258 kts | 276° |
| 2026-05-08 13:30 | 45.77457 | 7.60652 | 18083 ft | 258 kts | 276° |
| 2026-05-08 13:31 | 45.77674 | 7.58096 | 18077 ft | 258 kts | 276° |
| 2026-05-08 13:31 | 45.77890 | 7.55544 | 18076 ft | 258 kts | 276° |
| 2026-05-08 13:31 | 45.78106 | 7.52986 | 18077 ft | 258 kts | 276° |
| 2026-05-08 13:31 | 45.78318 | 7.50465 | 18077 ft | 258 kts | 276° |
| 2026-05-08 13:32 | 45.78531 | 7.47906 | 18049 ft | 259 kts | 276° |
| 2026-05-08 13:32 | 45.78743 | 7.45346 | 18045 ft | 258 kts | 276° |
| 2026-05-08 13:32 | 45.78952 | 7.42788 | 18051 ft | 259 kts | 276° |
| 2026-05-08 13:32 | 45.79158 | 7.40228 | 18050 ft | 258 kts | 276° |
| 2026-05-08 13:33 | 45.79360 | 7.37675 | 18051 ft | 258 kts | 275° |
| 2026-05-08 13:33 | 45.79557 | 7.35122 | 18054 ft | 258 kts | 275° |
| 2026-05-08 13:33 | 45.79752 | 7.32564 | 18054 ft | 259 kts | 275° |
| 2026-05-08 13:33 | 45.79944 | 7.29994 | 18051 ft | 258 kts | 275° |
| 2026-05-08 13:34 | 45.80132 | 7.27432 | 18048 ft | 258 kts | 275° |
| 2026-05-08 13:34 | 45.80316 | 7.24893 | 18053 ft | 257 kts | 275° |
| 2026-05-08 13:34 | 45.80500 | 7.22346 | 18048 ft | 256 kts | 275° |
| 2026-05-08 13:34 | 45.80684 | 7.19806 | 18053 ft | 256 kts | 275° |
| 2026-05-08 13:35 | 45.80865 | 7.17296 | 18049 ft | 257 kts | 275° |
| 2026-05-08 13:35 | 45.81049 | 7.14751 | 18053 ft | 257 kts | 275° |
| 2026-05-08 13:35 | 45.81233 | 7.12188 | 18050 ft | 257 kts | 275° |
| 2026-05-08 13:35 | 45.81481 | 7.09654 | 18049 ft | 257 kts | 280° |
| 2026-05-08 13:36 | 45.82127 | 7.07277 | 18043 ft | 259 kts | 300° |
| 2026-05-08 13:36 | 45.83376 | 7.05397 | 18040 ft | 264 kts | 322° |
| 2026-05-08 13:36 | 45.85056 | 7.04337 | 18036 ft | 267 kts | 343° |
| 2026-05-08 13:36 | 45.86875 | 7.03777 | 18033 ft | 267 kts | 347° |
| 2026-05-08 13:37 | 45.88694 | 7.03235 | 18046 ft | 267 kts | 346° |
| 2026-05-08 13:37 | 45.90495 | 7.02629 | 18030 ft | 269 kts | 344° |
| 2026-05-08 13:37 | 45.92308 | 7.01998 | 18028 ft | 267 kts | 344° |
| 2026-05-08 13:37 | 45.94115 | 7.01385 | 18031 ft | 267 kts | 345° |
| 2026-05-08 13:38 | 45.95928 | 7.00778 | 18028 ft | 268 kts | 345° |
| 2026-05-08 13:38 | 45.97741 | 7.00168 | 18021 ft | 267 kts | 345° |
| 2026-05-08 13:38 | 45.99554 | 6.99555 | 18022 ft | 268 kts | 344° |
| 2026-05-08 13:38 | 46.01398 | 6.99349 | 18012 ft | 269 kts | 6° |
| 2026-05-08 13:39 | 46.03176 | 7.00188 | 18008 ft | 271 kts | 27° |
| 2026-05-08 13:39 | 46.04618 | 7.01940 | 18005 ft | 275 kts | 50° |
| 2026-05-08 13:39 | 46.05715 | 7.04187 | 18000 ft | 274 kts | 56° |
| 2026-05-08 13:39 | 46.06779 | 7.06469 | 17992 ft | 272 kts | 50° |
| 2026-05-08 13:40 | 46.08280 | 7.08064 | 18002 ft | 270 kts | 24° |
| 2026-05-08 13:40 | 46.10055 | 7.08750 | 18003 ft | 268 kts | 2° |
| 2026-05-08 13:40 | 46.11889 | 7.08484 | 18002 ft | 265 kts | 341° |
| 2026-05-08 13:40 | 46.13524 | 7.07305 | 17999 ft | 262 kts | 321° |
| 2026-05-08 13:41 | 46.14749 | 7.05394 | 18003 ft | 259 kts | 301° |
| 2026-05-08 13:41 | 46.15429 | 7.03005 | 18004 ft | 257 kts | 280° |
| 2026-05-08 13:41 | 46.15488 | 7.00455 | 18015 ft | 254 kts | 261° |
| 2026-05-08 13:41 | 46.14937 | 6.98034 | 17998 ft | 256 kts | 242° |
| 2026-05-08 13:42 | 46.13835 | 6.96029 | 18001 ft | 256 kts | 222° |
| 2026-05-08 13:42 | 46.12311 | 6.94697 | 18007 ft | 258 kts | 202° |
| 2026-05-08 13:42 | 46.10544 | 6.94214 | 18012 ft | 261 kts | 182° |
| 2026-05-08 13:42 | 46.08752 | 6.94670 | 18014 ft | 264 kts | 161° |
| 2026-05-08 13:43 | 46.07194 | 6.96019 | 18016 ft | 267 kts | 139° |
| 2026-05-08 13:43 | 46.06294 | 6.98343 | 18014 ft | 273 kts | 102° |
| 2026-05-08 13:43 | 46.06495 | 7.01032 | 18020 ft | 275 kts | 66° |
| 2026-05-08 13:43 | 46.07621 | 7.03222 | 18015 ft | 273 kts | 45° |
| 2026-05-08 13:44 | 46.08947 | 7.05174 | 18011 ft | 272 kts | 46° |
| 2026-05-08 13:44 | 46.10109 | 7.07333 | 18004 ft | 274 kts | 57° |
| 2026-05-08 13:44 | 46.11037 | 7.09749 | 17999 ft | 276 kts | 63° |
| 2026-05-08 13:44 | 46.11926 | 7.12198 | 17995 ft | 276 kts | 60° |
| 2026-05-08 13:45 | 46.12885 | 7.14591 | 17990 ft | 276 kts | 59° |
| 2026-05-08 13:45 | 46.13871 | 7.16969 | 17985 ft | 276 kts | 59° |
| 2026-05-08 13:45 | 46.14838 | 7.19360 | 17986 ft | 276 kts | 59° |
| 2026-05-08 13:45 | 46.15804 | 7.21753 | 17976 ft | 276 kts | 59° |
| 2026-05-08 13:46 | 46.16781 | 7.24155 | 17975 ft | 276 kts | 59° |
| 2026-05-08 13:46 | 46.17745 | 7.26507 | 17971 ft | 277 kts | 59° |
| 2026-05-08 13:46 | 46.18733 | 7.28900 | 17972 ft | 277 kts | 59° |
| 2026-05-08 13:46 | 46.19724 | 7.31284 | 17970 ft | 277 kts | 58° |
| 2026-05-08 13:47 | 46.20719 | 7.33661 | 17971 ft | 277 kts | 58° |
| 2026-05-08 13:47 | 46.21721 | 7.36040 | 17971 ft | 277 kts | 58° |
| 2026-05-08 13:47 | 46.22727 | 7.38419 | 17970 ft | 276 kts | 59° |
| 2026-05-08 13:47 | 46.23595 | 7.40889 | 17969 ft | 276 kts | 64° |
| 2026-05-08 13:48 | 46.24434 | 7.43388 | 17973 ft | 277 kts | 62° |
| 2026-05-08 13:48 | 46.25369 | 7.45823 | 17972 ft | 276 kts | 59° |
| 2026-05-08 13:48 | 46.26355 | 7.48205 | 17976 ft | 276 kts | 59° |
| 2026-05-08 13:48 | 46.27322 | 7.50600 | 18027 ft | 276 kts | 60° |
| 2026-05-08 13:49 | 46.28077 | 7.53087 | 18018 ft | 275 kts | 77° |
| 2026-05-08 13:49 | 46.28177 | 7.55844 | 18027 ft | 274 kts | 96° |
| 2026-05-08 13:49 | 46.27969 | 7.58589 | 18025 ft | 274 kts | 98° |
| 2026-05-08 13:49 | 46.27741 | 7.61327 | 18025 ft | 273 kts | 97° |
| 2026-05-08 13:50 | 46.27530 | 7.64064 | 18026 ft | 274 kts | 97° |
| 2026-05-08 13:50 | 46.27328 | 7.66798 | 18028 ft | 274 kts | 97° |
| 2026-05-08 13:50 | 46.26931 | 7.72025 | 18042 ft | 276 kts | 97° |
| 2026-05-08 13:51 | 46.26721 | 7.74745 | 18039 ft | 276 kts | 97° |
| 2026-05-08 13:51 | 46.26510 | 7.77502 | 18034 ft | 275 kts | 97° |
| 2026-05-08 13:51 | 46.26298 | 7.80250 | 18038 ft | 274 kts | 97° |
| 2026-05-08 13:51 | 46.26227 | 7.81172 | 18037 ft | 274 kts | 97° |
| 2026-05-08 13:52 | 46.25856 | 7.85956 | 18038 ft | 275 kts | 97° |
| 2026-05-08 13:52 | 46.25718 | 7.88705 | 18037 ft | 269 kts | 87° |
| 2026-05-08 13:52 | 46.26143 | 7.91200 | 17841 ft | 250 kts | 66° |
| 2026-05-08 13:52 | 46.26904 | 7.93433 | 17236 ft | 251 kts | 62° |
| 2026-05-08 13:53 | 46.27693 | 7.95675 | 16851 ft | 249 kts | 63° |
| 2026-05-08 13:53 | 46.28464 | 7.97920 | 16848 ft | 251 kts | 64° |
| 2026-05-08 13:53 | 46.28723 | 7.98679 | 16963 ft | 248 kts | 64° |
| 2026-05-08 13:53 | 46.29996 | 8.02393 | 17035 ft | 246 kts | 60° |
| 2026-05-08 13:54 | 46.31091 | 8.04242 | 17044 ft | 243 kts | 35° |
| 2026-05-08 13:54 | 46.32592 | 8.05278 | 17051 ft | 239 kts | 12° |
| 2026-05-08 13:54 | 46.34227 | 8.05389 | 17047 ft | 234 kts | 352° |
| 2026-05-08 13:54 | 46.35849 | 8.05130 | 17057 ft | 234 kts | 351° |
| 2026-05-08 13:55 | 46.37465 | 8.04865 | 17039 ft | 233 kts | 351° |
| 2026-05-08 13:55 | 46.39059 | 8.04608 | 17047 ft | 232 kts | 349° |
| 2026-05-08 13:55 | 46.41667 | 8.02254 | 17034 ft | 221 kts | 300° |
| 2026-05-08 13:56 | 46.42202 | 8.00232 | 17036 ft | 217 kts | 277° |
| 2026-05-08 13:56 | 46.42126 | 7.98039 | 17033 ft | 217 kts | 254° |
| 2026-05-08 13:56 | 46.41540 | 7.96066 | 17034 ft | 215 kts | 243° |
| 2026-05-08 13:56 | 46.40871 | 7.94128 | 17029 ft | 214 kts | 243° |
| 2026-05-08 13:57 | 46.40209 | 7.92200 | 17033 ft | 214 kts | 244° |
| 2026-05-08 13:57 | 46.39602 | 7.90243 | 17020 ft | 210 kts | 248° |
| 2026-05-08 13:57 | 46.39023 | 7.88312 | 16710 ft | 209 kts | 245° |
| 2026-05-08 13:57 | 46.38424 | 7.86391 | 16385 ft | 209 kts | 245° |
| 2026-05-08 13:58 | 46.37846 | 7.84475 | 16140 ft | 205 kts | 246° |
| 2026-05-08 13:58 | 46.37469 | 7.83225 | 16037 ft | 201 kts | 246° |
| 2026-05-08 13:59 | 46.35132 | 7.75142 | 14899 ft | 174 kts | 244° |
| 2026-05-08 13:59 | 46.34619 | 7.73456 | 14196 ft | 192 kts | 244° |
| 2026-05-08 14:00 | 46.34056 | 7.71633 | 13454 ft | 204 kts | 243° |
| 2026-05-08 14:00 | 46.33468 | 7.69711 | 12662 ft | 213 kts | 244° |
| 2026-05-08 14:00 | 46.32859 | 7.67726 | 11896 ft | 218 kts | 244° |
| 2026-05-08 14:00 | 46.32234 | 7.65706 | 11153 ft | 221 kts | 244° |
| 2026-05-08 14:01 | 46.31608 | 7.63655 | 10426 ft | 224 kts | 244° |
| 2026-05-08 14:01 | 46.30972 | 7.61595 | 9691 ft | 225 kts | 245° |
| 2026-05-08 14:01 | 46.30549 | 7.60223 | 9175 ft | 224 kts | 245° |
| 2026-05-08 14:01 | 46.29916 | 7.58159 | 8414 ft | 224 kts | 245° |
| 2026-05-08 14:02 | 46.29072 | 7.55414 | 7425 ft | 223 kts | 246° |
| 2026-05-08 14:02 | 46.28653 | 7.54060 | 6947 ft | 222 kts | 246° |
| 2026-05-08 14:02 | 46.27825 | 7.51362 | 5928 ft | 220 kts | 246° |
| 2026-05-08 14:02 | 46.27407 | 7.49997 | 5367 ft | 218 kts | 246° |
| 2026-05-08 14:03 | 46.26792 | 7.48002 | 4670 ft | 216 kts | 246° |
| 2026-05-08 14:03 | 46.26182 | 7.46025 | 4033 ft | 213 kts | 246° |
| 2026-05-08 14:03 | 46.25616 | 7.44194 | 3736 ft | 196 kts | 245° |
| 2026-05-08 14:03 | 46.25073 | 7.42464 | 3405 ft | 185 kts | 244° |
| 2026-05-08 14:04 | 46.24337 | 7.41056 | 3251 ft | 168 kts | 216° |
| 2026-05-08 14:04 | 46.23583 | 7.39949 | 2997 ft | 148 kts | 246° |
| 2026-05-08 14:04 | 46.23238 | 7.38668 | 2782 ft | 126 kts | 249° |
| 2026-05-08 14:04 | 46.22973 | 7.37546 | 2519 ft | 105 kts | 253° |
| 2026-05-08 14:05 | 46.22770 | 7.36610 | 2169 ft | 92 kts | 252° |
| 2026-05-08 14:05 | 46.22593 | 7.35788 | 1922 ft | 82 kts | 252° |
| 2026-05-08 14:05 | 46.22440 | 7.35049 | 1750 ft | 77 kts | 253° |
| 2026-05-08 14:05 | 46.22287 | 7.34322 | 1673 ft | 76 kts | 252° |
| 2026-05-08 14:06 | 46.22128 | 7.33605 | 1584 ft | 67 kts | 253° |
| 2026-05-08 14:06 | 46.22029 | 7.33144 | 1584 ft | 17 kts | 245° |
| 2026-05-08 14:06 | 46.21960 | 7.33112 | 1584 ft | 8 kts | 178° |
| 2026-05-08 14:06 | 46.21954 | 7.33183 | 1584 ft | 15 kts | 71° |
| 2026-05-08 14:07 | 46.21993 | 7.33359 | 1584 ft | 17 kts | 73° |
| 2026-05-08 14:07 | 46.22020 | 7.33496 | 1584 ft | 9 kts | 79° |
| 2026-05-08 14:07 | 46.21992 | 7.33543 | 1584 ft | 0 kts | 160° |